createdAt,value
2022-12-03T00:00:33.141Z,2.72
2022-12-03T00:03:22.250Z,2.70
2022-12-03T00:05:52.851Z,2.84
2022-12-03T00:08:22.827Z,2.86
2022-12-03T00:10:57.196Z,2.85
2022-12-03T00:13:30.515Z,2.85
2022-12-03T00:16:00.411Z,2.64
2022-12-03T00:18:30.548Z,2.70
2022-12-03T00:21:07.445Z,2.64
2022-12-03T00:23:42.291Z,2.63
2022-12-03T00:26:19.579Z,2.41
2022-12-03T00:28:51.012Z,2.53
2022-12-03T00:31:19.028Z,2.45
2022-12-03T00:33:53.985Z,2.47
2022-12-03T00:36:24.275Z,2.50
2022-12-03T00:38:56.205Z,2.46
2022-12-03T00:41:26.544Z,2.50
2022-12-03T00:43:57.658Z,2.46
2022-12-03T00:46:25.661Z,2.32
2022-12-03T00:48:54.363Z,2.50
2022-12-03T00:51:31.228Z,2.44
2022-12-03T00:54:04.923Z,2.56
2022-12-03T00:56:49.286Z,2.45
2022-12-03T00:59:17.701Z,2.63
2022-12-03T01:01:47.443Z,2.49
2022-12-03T01:04:17.240Z,2.49
2022-12-03T01:06:49.496Z,2.42
2022-12-03T01:09:18.184Z,2.42
2022-12-03T01:11:47.686Z,2.39
2022-12-03T01:14:17.358Z,2.20
2022-12-03T01:16:47.203Z,2.24
2022-12-03T01:19:16.895Z,2.27
2022-12-03T01:21:48.951Z,2.24
2022-12-03T01:24:18.072Z,2.17
2022-12-03T01:26:46.182Z,2.18
2022-12-03T01:29:14.360Z,2.18
2022-12-03T01:32:02.281Z,2.12
2022-12-03T01:34:29.667Z,2.06
2022-12-03T01:36:57.782Z,2.18
2022-12-03T01:39:25.102Z,2.18
2022-12-03T01:41:54.375Z,2.18
2022-12-03T01:44:27.889Z,2.16
2022-12-03T01:46:59.624Z,2.11
2022-12-03T01:49:31.620Z,2.10
2022-12-03T01:52:02.121Z,2.15
2022-12-03T01:54:39.077Z,2.20
2022-12-03T01:57:32.438Z,2.14
2022-12-03T02:00:02.336Z,2.13
2022-12-03T02:02:46.936Z,2.18
2022-12-03T02:05:34.789Z,2.16
2022-12-03T02:08:58.851Z,2.18
2022-12-03T02:11:34.590Z,2.14
2022-12-03T02:14:07.074Z,2.00
2022-12-03T02:16:38.257Z,2.10
2022-12-03T02:19:16.805Z,2.09
2022-12-03T02:21:59.679Z,2.17
2022-12-03T02:24:36.284Z,2.17
2022-12-03T02:27:06.412Z,2.11
2022-12-03T02:29:34.526Z,2.20
2022-12-03T02:32:09.381Z,2.23
2022-12-03T02:34:46.089Z,2.19
2022-12-03T02:37:20.185Z,2.30
2022-12-03T02:39:52.428Z,2.28
2022-12-03T02:42:35.691Z,2.26
2022-12-03T02:45:09.246Z,2.23
2022-12-03T02:47:42.555Z,2.21
2022-12-03T02:50:13.482Z,2.09
2022-12-03T02:52:44.781Z,2.13
2022-12-03T02:55:14.872Z,2.09
2022-12-03T02:57:45.951Z,2.03
2022-12-03T03:00:14.788Z,2.13
2022-12-03T03:02:46.599Z,2.07
2022-12-03T03:05:18.012Z,2.11
2022-12-03T03:07:45.611Z,2.16
2022-12-03T03:10:20.775Z,2.11
2022-12-03T03:12:48.781Z,2.11
2022-12-03T03:15:19.956Z,2.10
2022-12-03T03:17:47.222Z,2.07
2022-12-03T03:20:18.116Z,2.09
2022-12-03T03:22:48.042Z,2.12
2022-12-03T03:25:23.593Z,2.13
2022-12-03T03:27:53.106Z,2.17
2022-12-03T03:30:29.565Z,2.26
2022-12-03T03:32:58.672Z,2.19
2022-12-03T03:35:27.538Z,2.17
2022-12-03T03:37:57.022Z,2.19
2022-12-03T03:40:27.035Z,2.18
2022-12-03T03:42:56.336Z,2.09
2022-12-03T03:45:28.729Z,2.19
2022-12-03T03:47:59.157Z,2.12
2022-12-03T03:50:31.684Z,2.17
2022-12-03T03:53:01.575Z,2.14
2022-12-03T03:55:30.547Z,2.17
2022-12-03T03:57:58.801Z,2.15
2022-12-03T04:00:49.816Z,1.98
2022-12-03T04:03:18.002Z,2.14
2022-12-03T04:05:48.667Z,2.00
2022-12-03T04:08:20.610Z,2.01
2022-12-03T04:11:26.765Z,2.01
2022-12-03T04:13:54.266Z,2.06
2022-12-03T04:16:23.425Z,2.00
2022-12-03T04:18:52.231Z,1.99
2022-12-03T04:21:40.732Z,1.93
2022-12-03T04:24:13.870Z,1.90
2022-12-03T04:27:00.148Z,1.96
2022-12-03T04:29:27.405Z,1.86
2022-12-03T04:32:14.946Z,1.80
2022-12-03T04:35:00.543Z,1.78
2022-12-03T04:37:29.891Z,1.74
2022-12-03T04:39:58.588Z,1.71
2022-12-03T04:42:26.459Z,1.82
2022-12-03T04:44:54.781Z,1.66
2022-12-03T04:47:22.825Z,1.80
2022-12-03T04:49:52.583Z,1.72
2022-12-03T04:52:21.225Z,1.77
2022-12-03T04:54:48.701Z,1.76
2022-12-03T04:57:21.017Z,1.78
2022-12-03T04:59:48.604Z,1.65
2022-12-03T05:02:16.944Z,1.70
2022-12-03T05:04:49.524Z,1.63
2022-12-03T05:07:17.298Z,1.54
2022-12-03T05:09:45.418Z,1.62
2022-12-03T05:12:13.034Z,1.56
2022-12-03T05:14:45.219Z,1.62
2022-12-03T05:17:14.221Z,1.51
2022-12-03T05:20:00.357Z,1.52
2022-12-03T05:22:32.118Z,1.59
2022-12-03T05:25:01.414Z,1.62
2022-12-03T05:27:29.420Z,1.66
2022-12-03T05:30:01.248Z,1.64
2022-12-03T05:32:30.301Z,1.67
2022-12-03T05:34:57.609Z,1.76
2022-12-03T05:37:27.157Z,1.73
2022-12-03T05:39:54.701Z,1.72
2022-12-03T05:42:48.335Z,1.77
2022-12-03T05:45:15.949Z,1.78
2022-12-03T05:47:45.448Z,1.79
2022-12-03T05:50:12.947Z,1.83
2022-12-03T05:52:40.655Z,1.81
2022-12-03T05:55:08.510Z,1.65
2022-12-03T05:57:36.106Z,1.77
2022-12-03T06:00:14.794Z,1.66
2022-12-03T06:02:47.973Z,1.76
2022-12-03T06:05:19.626Z,1.75
2022-12-03T06:07:52.430Z,1.82
2022-12-03T06:10:23.683Z,1.69
2022-12-03T06:12:51.864Z,1.84
2022-12-03T06:15:19.556Z,1.91
2022-12-03T06:17:47.525Z,1.94
2022-12-03T06:20:20.307Z,1.99
2022-12-03T06:22:49.471Z,2.02
2022-12-03T06:25:16.864Z,2.09
2022-12-03T06:27:45.575Z,2.16
2022-12-03T06:30:14.934Z,2.21
2022-12-03T06:32:42.532Z,2.19
2022-12-03T06:35:10.099Z,2.28
2022-12-03T06:37:37.609Z,2.29
2022-12-03T06:40:08.635Z,2.34
2022-12-03T06:42:36.438Z,2.40
2022-12-03T06:45:03.927Z,2.48
2022-12-03T06:47:31.701Z,2.42
2022-12-03T06:49:58.935Z,2.38
2022-12-03T06:52:26.464Z,2.36
2022-12-03T06:54:53.976Z,2.43
2022-12-03T06:57:21.867Z,2.43
2022-12-03T06:59:49.171Z,2.52
2022-12-03T07:02:16.803Z,2.53
2022-12-03T07:04:46.592Z,2.62
2022-12-03T07:07:14.885Z,2.61
2022-12-03T07:09:43.503Z,2.73
2022-12-03T07:12:11.057Z,2.77
2022-12-03T07:14:38.320Z,2.68
2022-12-03T07:17:06.018Z,2.80
2022-12-03T07:19:33.417Z,2.76
2022-12-03T07:22:03.507Z,2.74
2022-12-03T07:24:31.253Z,2.68
2022-12-03T07:26:59.260Z,2.73
2022-12-03T07:29:26.769Z,2.78
2022-12-03T07:31:57.028Z,2.83
2022-12-03T07:34:24.492Z,2.81
2022-12-03T07:36:52.524Z,2.96
2022-12-03T07:39:20.699Z,3.11
2022-12-03T07:41:48.870Z,3.16
2022-12-03T07:44:16.495Z,3.23
2022-12-03T07:46:45.355Z,3.34
2022-12-03T07:49:12.681Z,3.60
2022-12-03T07:51:40.819Z,3.78
2022-12-03T07:54:08.246Z,4.12
2022-12-03T07:56:36.206Z,4.35
2022-12-03T07:59:11.160Z,4.58
2022-12-03T08:01:40.772Z,5.46
2022-12-03T08:04:12.564Z,6.31
2022-12-03T08:06:40.331Z,6.72
2022-12-03T08:09:10.902Z,6.61
2022-12-03T08:11:42.002Z,7.39
2022-12-03T08:14:13.877Z,7.27
2022-12-03T08:16:44.299Z,7.29
2022-12-03T08:19:13.958Z,7.67
2022-12-03T08:21:42.498Z,7.53
2022-12-03T08:24:17.052Z,7.88
2022-12-03T08:26:46.505Z,8.00
2022-12-03T08:29:18.907Z,8.21
2022-12-03T08:31:50.038Z,8.30
2022-12-03T08:34:28.547Z,8.52
2022-12-03T08:37:06.421Z,9.36
2022-12-03T08:39:48.593Z,8.32
2022-12-03T08:42:41.863Z,8.09
2022-12-03T08:45:35.811Z,9.46
2022-12-03T08:48:14.388Z,8.65
2022-12-03T08:50:43.163Z,8.96
2022-12-03T08:53:13.779Z,8.80
2022-12-03T08:55:53.833Z,8.07
2022-12-03T08:58:42.368Z,8.63
2022-12-03T09:01:12.037Z,8.96
2022-12-03T09:03:51.270Z,8.48
2022-12-03T09:06:19.345Z,8.91
2022-12-03T09:08:47.226Z,8.95
2022-12-03T09:11:15.236Z,8.90
2022-12-03T09:13:44.097Z,8.83
2022-12-03T09:16:13.479Z,8.87
2022-12-03T09:18:41.051Z,8.78
2022-12-03T09:21:09.852Z,8.81
2022-12-03T09:23:38.085Z,8.64
2022-12-03T09:26:05.723Z,8.38
2022-12-03T09:28:33.287Z,8.72
2022-12-03T09:31:01.259Z,8.36
2022-12-03T09:33:28.858Z,8.56
2022-12-03T09:35:56.119Z,8.49
2022-12-03T09:38:25.909Z,9.02
2022-12-03T09:40:54.512Z,8.52
2022-12-03T09:43:22.673Z,9.27
2022-12-03T09:45:51.017Z,8.96
2022-12-03T09:48:20.876Z,8.51
2022-12-03T09:50:50.413Z,8.17
2022-12-03T09:53:22.413Z,10.59
2022-12-03T09:55:50.178Z,10.52
2022-12-03T09:58:20.454Z,10.69
2022-12-03T10:00:51.015Z,9.43
2022-12-03T10:03:29.523Z,10.05
2022-12-03T10:05:57.899Z,10.70
2022-12-03T10:08:31.997Z,9.83
2022-12-03T10:10:59.714Z,9.57
2022-12-03T10:13:30.250Z,8.62
2022-12-03T10:16:00.298Z,10.11
2022-12-03T10:18:32.763Z,9.93
2022-12-03T10:21:04.212Z,9.85
2022-12-03T10:23:31.894Z,11.17
2022-12-03T10:26:04.360Z,10.73
2022-12-03T10:28:37.979Z,10.89
2022-12-03T10:31:12.554Z,11.50
2022-12-03T10:33:46.175Z,10.47
2022-12-03T10:36:24.913Z,10.63
2022-12-03T10:39:08.025Z,10.16
2022-12-03T10:41:36.379Z,11.87
2022-12-03T10:44:25.846Z,11.29
2022-12-03T10:47:07.955Z,10.76
2022-12-03T10:49:37.291Z,10.56
2022-12-03T10:52:06.322Z,10.78
2022-12-03T10:54:36.677Z,10.96
2022-12-03T10:57:05.062Z,12.69
2022-12-03T10:59:35.101Z,13.17
2022-12-03T11:02:07.357Z,12.03
2022-12-03T11:04:37.166Z,12.02
2022-12-03T11:07:20.468Z,11.04
2022-12-03T11:09:52.001Z,10.64
2022-12-03T11:12:19.558Z,9.89
2022-12-03T11:14:56.922Z,9.80
2022-12-03T11:17:44.382Z,9.95
2022-12-03T11:20:32.445Z,10.18
2022-12-03T11:23:00.325Z,10.52
2022-12-03T11:25:45.950Z,11.00
2022-12-03T11:28:13.129Z,11.30
2022-12-03T11:30:46.897Z,10.97
2022-12-03T11:33:23.164Z,10.02
2022-12-03T11:36:31.766Z,10.29
2022-12-03T11:39:08.586Z,10.13
2022-12-03T11:41:36.300Z,10.08
2022-12-03T11:44:26.860Z,9.75
2022-12-03T11:46:56.678Z,9.71
2022-12-03T11:49:48.215Z,9.62
2022-12-03T11:52:27.770Z,9.64
2022-12-03T11:55:04.945Z,9.99
2022-12-03T11:57:37.281Z,9.88
2022-12-03T12:00:23.804Z,9.59
2022-12-03T12:02:54.328Z,9.71
2022-12-03T12:05:33.695Z,9.40
2022-12-03T12:08:02.687Z,9.32
2022-12-03T12:11:01.257Z,9.39
2022-12-03T12:13:31.823Z,9.25
2022-12-03T12:16:06.410Z,9.27
2022-12-03T12:18:38.576Z,9.47
2022-12-03T12:21:57.274Z,9.53
2022-12-03T12:24:51.171Z,9.20
2022-12-03T12:27:30.829Z,9.07
2022-12-03T12:30:20.438Z,9.34
2022-12-03T12:33:14.618Z,9.18
2022-12-03T12:35:43.324Z,9.46
2022-12-03T12:38:19.938Z,9.75
2022-12-03T12:40:50.382Z,9.10
2022-12-03T12:43:25.305Z,8.69
2022-12-03T12:46:24.896Z,9.12
2022-12-03T12:48:57.932Z,8.92
2022-12-03T12:51:29.493Z,8.72
2022-12-03T12:53:57.574Z,8.82
2022-12-03T12:56:28.260Z,9.01
2022-12-03T12:59:10.619Z,9.09
2022-12-03T13:01:40.012Z,9.10
2022-12-03T13:04:12.757Z,8.83
2022-12-03T13:06:40.877Z,8.55
2022-12-03T13:09:33.341Z,8.50
2022-12-03T13:12:07.542Z,8.21
2022-12-03T13:14:37.568Z,8.26
2022-12-03T13:17:24.564Z,8.20
2022-12-03T13:20:05.162Z,8.32
2022-12-03T13:22:35.288Z,8.07
2022-12-03T13:26:00.247Z,8.03
2022-12-03T13:28:25.029Z,8.38
2022-12-03T13:30:52.893Z,7.61
2022-12-03T13:33:28.879Z,7.61
2022-12-03T13:35:56.437Z,8.03
2022-12-03T13:38:25.295Z,8.05
2022-12-03T13:41:00.244Z,7.85
2022-12-03T13:43:33.102Z,8.23
2022-12-03T13:46:00.709Z,7.93
2022-12-03T13:48:35.246Z,7.88
2022-12-03T13:51:34.848Z,7.56
2022-12-03T13:54:05.996Z,7.28
2022-12-03T13:56:33.784Z,7.34
2022-12-03T13:59:02.077Z,7.14
2022-12-03T14:01:30.105Z,6.93
2022-12-03T14:03:59.607Z,6.71
2022-12-03T14:06:26.885Z,6.37
2022-12-03T14:08:55.674Z,6.23
2022-12-03T14:11:41.439Z,6.01
2022-12-03T14:14:11.100Z,6.12
2022-12-03T14:16:42.571Z,6.02
2022-12-03T14:19:13.991Z,5.96
2022-12-03T14:21:43.229Z,5.84
2022-12-03T14:24:24.094Z,5.81
2022-12-03T14:26:54.165Z,5.61
2022-12-03T14:29:21.871Z,5.54
2022-12-03T14:31:50.158Z,5.46
2022-12-03T14:34:17.709Z,5.35
2022-12-03T14:36:45.205Z,5.10
2022-12-03T14:39:12.976Z,5.17
2022-12-03T14:42:00.185Z,4.96
2022-12-03T14:44:29.616Z,5.06
2022-12-03T14:46:57.671Z,4.92
2022-12-03T14:49:26.231Z,5.47
2022-12-03T14:51:54.657Z,4.90
2022-12-03T14:54:22.912Z,4.66
2022-12-03T14:56:50.228Z,4.62
2022-12-03T14:59:25.849Z,4.63
2022-12-03T15:01:57.968Z,4.62
2022-12-03T15:04:31.224Z,4.53
2022-12-03T15:06:59.346Z,4.41
2022-12-03T15:09:27.631Z,4.46
2022-12-03T15:11:55.300Z,4.35
2022-12-03T15:14:25.560Z,4.43
2022-12-03T15:16:53.954Z,4.29
2022-12-03T15:19:22.886Z,4.14
2022-12-03T15:21:53.803Z,4.24
2022-12-03T15:24:21.935Z,4.34
2022-12-03T15:26:49.754Z,4.31
2022-12-03T15:29:17.289Z,4.29
2022-12-03T15:31:44.879Z,4.18
2022-12-03T15:34:17.343Z,4.31
2022-12-03T15:36:47.971Z,3.97
2022-12-03T15:39:15.556Z,4.08
2022-12-03T15:41:43.353Z,4.12
2022-12-03T15:44:12.462Z,4.02
2022-12-03T15:46:39.786Z,3.95
2022-12-03T15:49:08.774Z,3.86
2022-12-03T15:51:36.012Z,3.84
2022-12-03T15:54:03.707Z,3.80
2022-12-03T15:56:31.579Z,3.87
2022-12-03T15:58:59.450Z,3.59
2022-12-03T16:01:27.200Z,3.65
2022-12-03T16:03:56.485Z,3.63
2022-12-03T16:06:25.696Z,3.31
2022-12-03T16:08:54.780Z,3.36
2022-12-03T16:11:23.401Z,3.58
2022-12-03T16:13:50.952Z,3.46
2022-12-03T16:16:18.510Z,3.43
2022-12-03T16:18:47.491Z,3.29
2022-12-03T16:21:14.859Z,3.19
2022-12-03T16:23:42.531Z,3.23
2022-12-03T16:26:09.942Z,3.12
2022-12-03T16:28:37.585Z,2.98
2022-12-03T16:31:05.448Z,3.16
2022-12-03T16:33:35.703Z,2.97
2022-12-03T16:36:02.997Z,3.27
2022-12-03T16:38:31.141Z,3.03
2022-12-03T16:40:59.307Z,3.15
2022-12-03T16:43:27.062Z,3.02
2022-12-03T16:46:20.429Z,3.12
2022-12-03T16:48:48.670Z,3.12
2022-12-03T16:51:16.622Z,2.99
2022-12-03T16:53:44.241Z,2.88
2022-12-03T16:56:12.311Z,3.02
2022-12-03T16:58:41.205Z,2.97
2022-12-03T17:01:08.800Z,2.91
2022-12-03T17:03:36.799Z,2.91
2022-12-03T17:06:04.950Z,2.84
2022-12-03T17:08:33.264Z,2.73
2022-12-03T17:11:00.499Z,2.77
2022-12-03T17:13:28.192Z,2.62
2022-12-03T17:15:55.476Z,2.74
2022-12-03T17:18:23.162Z,2.82
2022-12-03T17:20:50.492Z,2.88
2022-12-03T17:23:18.693Z,2.74
2022-12-03T17:25:46.022Z,2.98
2022-12-03T17:28:14.200Z,2.80
2022-12-03T17:30:41.509Z,3.02
2022-12-03T17:33:09.306Z,2.89
2022-12-03T17:35:36.623Z,2.86
2022-12-03T17:38:04.269Z,2.62
2022-12-03T17:40:31.931Z,2.68
2022-12-03T17:43:00.226Z,2.93
2022-12-03T17:45:27.668Z,3.00
2022-12-03T17:47:55.272Z,2.83
2022-12-03T17:50:23.105Z,2.64
2022-12-03T17:52:51.368Z,2.78
2022-12-03T17:55:28.116Z,2.89
2022-12-03T17:57:58.762Z,2.64
2022-12-03T18:00:26.196Z,2.50
2022-12-03T18:02:54.165Z,2.61
2022-12-03T18:05:23.107Z,2.59
2022-12-03T18:07:51.452Z,2.52
2022-12-03T18:10:18.846Z,2.48
2022-12-03T18:12:46.439Z,2.35
2022-12-03T18:15:13.725Z,2.35
2022-12-03T18:17:43.436Z,2.44
2022-12-03T18:20:11.390Z,2.54
2022-12-03T18:22:41.248Z,2.49
2022-12-03T18:25:09.484Z,2.57
2022-12-03T18:27:37.064Z,2.50
2022-12-03T18:30:05.159Z,2.42
2022-12-03T18:32:34.839Z,2.54
2022-12-03T18:35:02.156Z,2.43
2022-12-03T18:37:31.915Z,2.47
2022-12-03T18:40:00.615Z,2.42
2022-12-03T18:42:29.375Z,2.44
2022-12-03T18:44:57.148Z,2.52
2022-12-03T18:47:28.774Z,2.55
2022-12-03T18:49:57.944Z,2.42
2022-12-03T18:52:25.782Z,2.48
2022-12-03T18:54:54.514Z,2.60
2022-12-03T18:57:23.886Z,2.38
2022-12-03T18:59:51.183Z,2.61
2022-12-03T19:03:01.868Z,2.65
2022-12-03T19:05:13.818Z,2.53
2022-12-03T19:07:44.340Z,2.38
2022-12-03T19:10:14.744Z,2.35
2022-12-03T19:12:42.309Z,2.35
2022-12-03T19:15:10.595Z,2.52
2022-12-03T19:17:40.178Z,2.33
2022-12-03T19:20:11.658Z,2.21
2022-12-03T19:22:39.398Z,2.29
2022-12-03T19:25:06.944Z,2.29
2022-12-03T19:27:36.093Z,2.42
2022-12-03T19:30:04.271Z,2.42
2022-12-03T19:32:34.173Z,2.34
2022-12-03T19:35:05.289Z,2.61
2022-12-03T19:37:34.118Z,2.40
2022-12-03T19:40:03.525Z,2.45
2022-12-03T19:42:33.541Z,2.64
2022-12-03T19:45:02.124Z,2.55
2022-12-03T19:47:31.147Z,2.45
2022-12-03T19:49:59.581Z,2.49
2022-12-03T19:52:27.318Z,2.57
2022-12-03T19:54:54.597Z,2.57
2022-12-03T19:57:23.660Z,2.50
2022-12-03T19:59:51.680Z,2.62
2022-12-03T20:02:19.684Z,2.61
2022-12-03T20:04:47.224Z,2.42
2022-12-03T20:07:14.817Z,2.34
2022-12-03T20:09:44.124Z,2.39
2022-12-03T20:12:15.212Z,2.27
2022-12-03T20:14:45.448Z,2.50
2022-12-03T20:17:15.026Z,2.56
2022-12-03T20:19:42.397Z,2.50
2022-12-03T20:22:11.182Z,2.53
2022-12-03T20:24:38.490Z,2.56
2022-12-03T20:27:06.540Z,2.49
2022-12-03T20:29:34.582Z,2.55
2022-12-03T20:32:02.193Z,2.52
2022-12-03T20:34:29.699Z,2.37
2022-12-03T20:36:58.114Z,2.39
2022-12-03T20:39:25.400Z,2.43
2022-12-03T20:41:54.018Z,2.54
2022-12-03T20:44:24.130Z,2.49
2022-12-03T20:46:52.368Z,2.46
2022-12-03T20:49:19.703Z,2.50
2022-12-03T20:51:50.338Z,2.48
2022-12-03T20:54:18.033Z,2.53
2022-12-03T20:56:45.632Z,2.44
2022-12-03T20:59:16.857Z,2.46
2022-12-03T21:01:45.363Z,2.45
2022-12-03T21:04:16.799Z,2.50
2022-12-03T21:06:45.383Z,2.56
2022-12-03T21:09:13.501Z,2.29
2022-12-03T21:11:42.654Z,2.42
2022-12-03T21:14:11.363Z,2.47
2022-12-03T21:17:07.455Z,2.38
2022-12-03T21:19:32.097Z,2.35
2022-12-03T21:22:00.982Z,2.39
2022-12-03T21:24:30.021Z,2.58
2022-12-03T21:26:57.665Z,2.46
2022-12-03T21:29:25.410Z,2.33
2022-12-03T21:31:53.031Z,2.44
2022-12-03T21:34:21.780Z,2.48
2022-12-03T21:36:49.333Z,2.43
2022-12-03T21:39:16.727Z,2.34
2022-12-03T21:42:19.307Z,2.36
2022-12-03T21:44:33.072Z,2.33
2022-12-03T21:47:10.096Z,2.36
2022-12-03T21:49:41.436Z,2.44
2022-12-03T21:52:09.343Z,2.35
2022-12-03T21:54:36.754Z,2.39
2022-12-03T21:57:06.000Z,2.39
2022-12-03T21:59:33.431Z,2.45
2022-12-03T22:02:01.315Z,2.46
2022-12-03T22:04:29.033Z,2.25
2022-12-03T22:06:57.465Z,2.55
2022-12-03T22:09:27.057Z,2.55
2022-12-03T22:11:57.050Z,2.53
2022-12-03T22:14:24.381Z,2.45
2022-12-03T22:16:51.947Z,2.46
2022-12-03T22:19:22.643Z,2.56
2022-12-03T22:21:50.623Z,2.62
2022-12-03T22:24:19.452Z,2.56
2022-12-03T22:26:47.661Z,2.55
2022-12-03T22:29:15.448Z,2.54
2022-12-03T22:31:43.031Z,2.54
2022-12-03T22:34:10.232Z,2.55
2022-12-03T22:36:37.972Z,2.51
2022-12-03T22:39:05.234Z,2.57
2022-12-03T22:41:32.933Z,2.52
2022-12-03T22:44:00.374Z,2.66
2022-12-03T22:46:29.531Z,2.56
2022-12-03T22:49:00.576Z,2.70
2022-12-03T22:51:33.388Z,2.68
2022-12-03T22:54:02.137Z,2.56
2022-12-03T22:56:30.642Z,2.62
2022-12-03T22:58:58.359Z,2.71
2022-12-03T23:01:28.560Z,2.67
2022-12-03T23:03:57.440Z,2.74
2022-12-03T23:06:26.032Z,2.69
2022-12-03T23:08:53.342Z,2.68
2022-12-03T23:11:21.820Z,2.66
2022-12-03T23:13:49.235Z,2.78
2022-12-03T23:16:20.523Z,2.68
2022-12-03T23:18:47.858Z,2.68
2022-12-03T23:21:17.210Z,2.66
2022-12-03T23:23:45.163Z,2.75
2022-12-03T23:26:14.850Z,2.75
2022-12-03T23:28:44.931Z,2.82
2022-12-03T23:31:23.517Z,3.00
2022-12-03T23:33:51.872Z,2.88
2022-12-03T23:36:19.900Z,2.89
2022-12-03T23:38:47.311Z,2.74
2022-12-03T23:41:17.875Z,2.73
2022-12-03T23:43:45.380Z,2.67
2022-12-03T23:46:23.089Z,2.65
2022-12-03T23:48:51.687Z,2.72
2022-12-03T23:51:24.654Z,2.74
2022-12-03T23:53:54.163Z,2.65
2022-12-03T23:56:27.252Z,2.57
2022-12-03T23:59:13.091Z,2.61
